Time;durP1;ratioP1;P1;durP2;ratioP2;P2;SDS_P1;SDS_P2;PMS_P1;PMS_P2;Temp;Humidity;BMP_temperature;BMP_pressure;BME280_temperature;BME280_humidity;BME280_pressure;Samples;Min_cycle;Max_cycle;Signal;HPM_P1;HPM_P2
2023/04/11 00:01:48;;;;;;;;;;;;;;;;;;5034765;28;20343;-30
2023/04/11 00:04:15;;;;;;;;;;;;;;;;;;5034595;28;19979;-29
2023/04/11 00:06:41;;;;;;;;;;;;;;;;;;5033866;28;20424;-32
2023/04/11 00:09:07;;;;;;;;;;;;;;;;;;5035003;28;20021;-28
2023/04/11 00:11:33;;;;;;;;;;;;;;;;;;5034954;28;20375;-28
2023/04/11 00:13:59;;;;;;;;;;;;;;;;;;5035380;28;19909;-29
2023/04/11 00:16:25;;;;;;;;;;;;;;;;;;5033955;28;19909;-32
2023/04/11 00:18:51;;;;;;;;;;;;;;;;;;5034711;28;19916;-29
2023/04/11 00:21:17;;;;;;;;;;;;;;;;;;5034868;28;19909;-28
2023/04/11 00:23:43;;;;;;;;;;;;;;;;;;5034473;28;19913;-26
2023/04/11 00:26:09;;;;;;;;;;;;;;;;;;5034846;28;19949;-24
2023/04/11 00:28:35;;;;;;;;;;;;;;;;;;5034585;28;19913;-24
2023/04/11 00:31:01;;;;;;;;;;;;;;;;;;5034557;28;19910;-28
2023/04/11 00:33:27;;;;;;;;;;;;;;;;;;5034467;28;19956;-28
2023/04/11 00:35:53;;;;;;;;;;;;;;;;;;5034473;28;19921;-26
2023/04/11 00:38:18;;;;;;;;;;;;;;;;;;5034446;28;19909;-27
2023/04/11 00:40:45;;;;;;;;;;;;;;;;;;5034382;28;20015;-30
2023/04/11 00:43:11;;;;;;;;;;;;;;;;;;5034497;28;19909;-26
2023/04/11 00:45:37;;;;;;;;;;;;;;;;;;5034264;28;19939;-27
2023/04/11 00:48:03;;;;;;;;;;;;;;;;;;5037665;28;20111;-24
2023/04/11 00:50:28;;;;;;;;;;;;;;;;;;5038351;28;19921;-24
2023/04/11 00:52:54;;;;;;;;;;;;;;;;;;5038314;28;19909;-28
2023/04/11 00:55:20;;;;;;;;;;;;;;;;;;5038560;28;19964;-27
2023/04/11 00:57:46;;;;;;;;;;;;;;;;;;5038297;28;19910;-24
2023/04/11 01:00:12;;;;;;;;;;;;;;;;;;5038193;28;19999;-24
2023/04/11 01:02:41;;;;;;;;;;;;;;;;;;5038045;28;19925;-28
2023/04/11 01:05:07;;;;;;;;;;;;;;;;;;5037978;28;19914;-28
2023/04/11 01:07:33;;;;;;;;;;;;;;;;;;5038277;28;19971;-23
2023/04/11 01:09:59;;;;;;;;;;;;;;;;;;5038045;28;19909;-23
2023/04/11 01:12:25;;;;;;;;;;;;;;;;;;5037933;28;20237;-28
2023/04/11 01:14:51;;;;;;;;;;;;;;;;;;5038236;28;19909;-26
2023/04/11 01:17:20;;;;;;;;;;;;;;;;;;5038146;28;19916;-25
2023/04/11 01:19:46;;;;;;;;;;;;;;;;;;5037905;28;19920;-26
2023/04/11 01:22:13;;;;;;;;;;;;;;;;;;5037678;28;19991;-26
2023/04/11 01:24:39;;;;;;;;;;;;;;;;;;5036678;28;20012;-28
2023/04/11 01:27:06;;;;;;;;;;;;;;;;;;5037761;28;19913;-24
2023/04/11 01:29:32;;;;;;;;;;;;;;;;;;5037918;28;19964;-26
2023/04/11 01:31:57;;;;;;;;;;;;;;;;;;5037609;28;20374;-23
2023/04/11 01:34:23;;;;;;;;;;;;;;;;;;5037577;28;19959;-24
2023/04/11 01:36:49;;;;;;;;;;;;;;;;;;5037574;28;19917;-25
2023/04/11 01:39:15;;;;;;;;;;;;;;;;;;5037699;28;19909;-28
2023/04/11 01:41:41;;;;;;;;;;;;;;;;;;5037380;28;19909;-23
2023/04/11 01:44:07;;;;;;;;;;;;;;;;;;5037491;28;19916;-26
2023/04/11 01:46:33;;;;;;;;;;;;;;;;;;5037376;28;20303;-28
2023/04/11 01:49:02;;;;;;;;;;;;;;;;;;5036384;28;19909;-25
2023/04/11 01:51:28;;;;;;;;;;;;;;;;;;5036257;28;19910;-30
2023/04/11 01:53:54;;;;;;;;;;;;;;;;;;5037201;28;19936;-25
2023/04/11 01:56:20;;;;;;;;;;;;;;;;;;5037387;28;19913;-31
2023/04/11 01:58:46;;;;;;;;;;;;;;;;;;5036372;28;19980;-29
2023/04/11 02:01:13;;;;;;;;;;;;;;;;;;5037011;28;19913;-24
2023/04/11 02:03:39;;;;;;;;;;;;;;;;;;5035690;28;19943;-22
2023/04/11 02:06:05;;;;;;;;;;;;;;;;;;5037251;28;19909;-25
2023/04/11 02:08:31;;;;;;;;;;;;;;;;;;5037194;28;19940;-26
2023/04/11 02:10:57;;;;;;;;;;;;;;;;;;5037166;28;20282;-25
2023/04/11 02:13:23;;;;;;;;;;;;;;;;;;5036814;28;19935;-27
2023/04/11 02:15:49;;;;;;;;;;;;;;;;;;5036810;28;19919;-26
2023/04/11 02:18:15;;;;;;;;;;;;;;;;;;5036722;28;19909;-26
2023/04/11 02:20:41;;;;;;;;;;;;;;;;;;5036703;28;19909;-29
2023/04/11 02:23:07;;;;;;;;;;;;;;;;;;5036882;28;20004;-28
2023/04/11 02:25:33;;;;;;;;;;;;;;;;;;5036604;28;20011;-25
2023/04/11 02:27:59;;;;;;;;;;;;;;;;;;5036848;28;19913;-25
2023/04/11 02:30:25;;;;;;;;;;;;;;;;;;5036819;28;19916;-25
2023/04/11 02:32:51;;;;;;;;;;;;;;;;;;5036427;28;20286;-24
2023/04/11 02:35:17;;;;;;;;;;;;;;;;;;5036392;28;19909;-22
2023/04/11 02:37:43;;;;;;;;;;;;;;;;;;5036733;28;19920;-31
2023/04/11 02:40:09;;;;;;;;;;;;;;;;;;5036309;28;19913;-25
2023/04/11 02:42:35;;;;;;;;;;;;;;;;;;5036393;28;20007;-26
2023/04/11 02:45:01;;;;;;;;;;;;;;;;;;5036447;28;19943;-27
2023/04/11 02:47:27;;;;;;;;;;;;;;;;;;5036471;28;20328;-28
2023/04/11 02:49:52;;;;;;;;;;;;;;;;;;5036157;28;20020;-29
2023/04/11 02:52:18;;;;;;;;;;;;;;;;;;5036039;28;19971;-24
2023/04/11 02:54:44;;;;;;;;;;;;;;;;;;5036287;28;19909;-25
2023/04/11 02:57:10;;;;;;;;;;;;;;;;;;5036001;28;20000;-23
2023/04/11 02:59:37;;;;;;;;;;;;;;;;;;5036237;28;19909;-22
2023/04/11 03:02:02;;;;;;;;;;;;;;;;;;5036511;28;19924;-26
2023/04/11 03:04:28;;;;;;;;;;;;;;;;;;5035650;28;19985;-24
2023/04/11 03:06:55;;;;;;;;;;;;;;;;;;5035815;28;20244;-23
2023/04/11 03:09:22;;;;;;;;;;;;;;;;;;5036034;28;19916;-22
2023/04/11 03:11:48;;;;;;;;;;;;;;;;;;5035008;28;19909;-27
2023/04/11 03:14:14;;;;;;;;;;;;;;;;;;5035630;28;19909;-23
2023/04/11 03:16:40;;;;;;;;;;;;;;;;;;5035648;28;19915;-27
2023/04/11 03:19:06;;;;;;;;;;;;;;;;;;5035513;28;19975;-27
2023/04/11 03:21:32;;;;;;;;;;;;;;;;;;5035807;28;19933;-24
2023/04/11 03:23:58;;;;;;;;;;;;;;;;;;5035380;28;20356;-25
2023/04/11 03:26:25;;;;;;;;;;;;;;;;;;5035404;28;19921;-24
2023/04/11 03:28:51;;;;;;;;;;;;;;;;;;5035704;28;20204;-27
2023/04/11 03:31:17;;;;;;;;;;;;;;;;;;5035391;28;19963;-26
2023/04/11 03:33:45;;;;;;;;;;;;;;;;;;5035295;28;19909;-27
2023/04/11 03:36:10;;;;;;;;;;;;;;;;;;5035187;28;20000;-29
2023/04/11 03:38:36;;;;;;;;;;;;;;;;;;5035235;28;19967;-27
2023/04/11 03:41:02;;;;;;;;;;;;;;;;;;5035196;28;19913;-24
2023/04/11 03:43:28;;;;;;;;;;;;;;;;;;5035254;28;19910;-26
2023/04/11 03:45:54;;;;;;;;;;;;;;;;;;5035050;28;19909;-26
2023/04/11 03:48:20;;;;;;;;;;;;;;;;;;5035008;28;19916;-23
2023/04/11 03:50:46;;;;;;;;;;;;;;;;;;5034972;28;19940;-27
2023/04/11 03:53:12;;;;;;;;;;;;;;;;;;5034804;28;19923;-29
2023/04/11 03:55:38;;;;;;;;;;;;;;;;;;5035010;28;19977;-25
2023/04/11 03:58:04;;;;;;;;;;;;;;;;;;5034744;28;19999;-28
2023/04/11 04:00:30;;;;;;;;;;;;;;;;;;5034915;28;19909;-25
2023/04/11 04:02:56;;;;;;;;;;;;;;;;;;5034610;28;19928;-28
2023/04/11 04:05:22;;;;;;;;;;;;;;;;;;5034776;28;20314;-26
2023/04/11 04:07:48;;;;;;;;;;;;;;;;;;5034502;28;20359;-28
2023/04/11 04:10:14;;;;;;;;;;;;;;;;;;5034881;28;20000;-30
2023/04/11 04:12:40;;;;;;;;;;;;;;;;;;5034474;28;19909;-26
2023/04/11 04:15:06;;;;;;;;;;;;;;;;;;5034556;28;20012;-25
2023/04/11 04:17:32;;;;;;;;;;;;;;;;;;5035039;28;19971;-28
2023/04/11 04:19:58;;;;;;;;;;;;;;;;;;5034607;28;19913;-25
2023/04/11 04:22:25;;;;;;;;;;;;;;;;;;5033912;28;20342;-29
2023/04/11 04:24:51;;;;;;;;;;;;;;;;;;5034357;28;19913;-27
2023/04/11 04:27:17;;;;;;;;;;;;;;;;;;5034249;28;19910;-31
2023/04/11 04:29:46;;;;;;;;;;;;;;;;;;5034297;28;19909;-23
2023/04/11 04:32:13;;;;;;;;;;;;;;;;;;5034387;28;19909;-26
2023/04/11 04:34:39;;;;;;;;;;;;;;;;;;5034154;28;19914;-28
2023/04/11 04:37:05;;;;;;;;;;;;;;;;;;5034435;28;19997;-25
2023/04/11 04:39:32;;;;;;;;;;;;;;;;;;5034109;28;19936;-29
2023/04/11 04:41:58;;;;;;;;;;;;;;;;;;5034098;28;19909;-29
2023/04/11 04:44:25;;;;;;;;;;;;;;;;;;5033915;28;19925;-27
2023/04/11 04:46:51;;;;;;;;;;;;;;;;;;5034153;28;19940;-27
2023/04/11 04:49:17;;;;;;;;;;;;;;;;;;5034086;28;19909;-25
2023/04/11 04:51:43;;;;;;;;;;;;;;;;;;5034076;28;19932;-27
2023/04/11 04:54:09;;;;;;;;;;;;;;;;;;5034218;28;19909;-24
2023/04/11 04:56:35;;;;;;;;;;;;;;;;;;5033850;28;19913;-31
2023/04/11 04:59:00;;;;;;;;;;;;;;;;;;5034235;28;19932;-27
2023/04/11 05:01:26;;;;;;;;;;;;;;;;;;5033775;28;20371;-28
2023/04/11 05:03:57;;;;;;;;;;;;;;;;;;5033408;28;19933;-28
2023/04/11 05:06:23;;;;;;;;;;;;;;;;;;5034399;28;19948;-28
2023/04/11 05:08:49;;;;;;;;;;;;;;;;;;5033803;28;20302;-28
2023/04/11 05:11:15;;;;;;;;;;;;;;;;;;5033565;28;19909;-25
2023/04/11 05:13:41;;;;;;;;;;;;;;;;;;5033360;28;20370;-30
2023/04/11 05:16:07;;;;;;;;;;;;;;;;;;5033388;28;19921;-27
2023/04/11 05:18:33;;;;;;;;;;;;;;;;;;5033582;28;19987;-28
2023/04/11 05:20:59;;;;;;;;;;;;;;;;;;5033707;28;20241;-27
2023/04/11 05:23:25;;;;;;;;;;;;;;;;;;5033703;28;19967;-29
2023/04/11 05:25:51;;;;;;;;;;;;;;;;;;5033697;28;20237;-24
2023/04/11 05:28:16;;;;;;;;;;;;;;;;;;5033704;28;19910;-25
2023/04/11 05:30:42;;;;;;;;;;;;;;;;;;5033949;28;19913;-26
2023/04/11 05:33:08;;;;;;;;;;;;;;;;;;5033592;28;19909;-26
2023/04/11 05:35:34;;;;;;;;;;;;;;;;;;5036178;28;19924;-30
2023/04/11 05:38:00;;;;;;;;;;;;;;;;;;5037701;28;19917;-25
2023/04/11 05:40:26;;;;;;;;;;;;;;;;;;5037360;28;19921;-30
2023/04/11 05:42:52;;;;;;;;;;;;;;;;;;5037026;28;20271;-31
2023/04/11 05:45:18;;;;;;;;;;;;;;;;;;5038013;28;19913;-24
2023/04/11 05:47:44;;;;;;;;;;;;;;;;;;5037019;28;20348;-27
2023/04/11 05:50:10;;;;;;;;;;;;;;;;;;5037230;28;19935;-25
2023/04/11 05:52:36;;;;;;;;;;;;;;;;;;5036688;28;19910;-26
2023/04/11 05:55:03;;;;;;;;;;;;;;;;;;5037324;28;20017;-28
2023/04/11 05:57:29;;;;;;;;;;;;;;;;;;5036586;28;19953;-27
2023/04/11 05:59:55;;;;;;;;;;;;;;;;;;5036598;28;19916;-27
2023/04/11 06:02:21;;;;;;;;;;;;;;;;;;5036754;28;20301;-28
2023/04/11 06:04:47;;;;;;;;;;;;;;;;;;5035603;28;19913;-32
2023/04/11 06:07:13;;;;;;;;;;;;;;;;;;5036558;28;19913;-25
2023/04/11 06:09:41;;;;;;;;;;;;;;;;;;5036604;28;20255;-24
2023/04/11 06:12:07;;;;;;;;;;;;;;;;;;5036776;28;20174;-26
2023/04/11 06:14:33;;;;;;;;;;;;;;;;;;5036214;28;19913;-28
2023/04/11 06:16:59;;;;;;;;;;;;;;;;;;5034898;28;19917;-23
2023/04/11 06:19:25;;;;;;;;;;;;;;;;;;5035827;28;19967;-31
2023/04/11 06:21:51;;;;;;;;;;;;;;;;;;5035835;28;19940;-28
2023/04/11 06:24:17;;;;;;;;;;;;;;;;;;5034822;28;20331;-26
2023/04/11 06:26:43;;;;;;;;;;;;;;;;;;5035838;28;19920;-27
2023/04/11 06:29:09;;;;;;;;;;;;;;;;;;5035752;28;19910;-26
2023/04/11 06:31:35;;;;;;;;;;;;;;;;;;5034749;28;20024;-28
2023/04/11 06:34:01;;;;;;;;;;;;;;;;;;5035704;28;19916;-30
2023/04/11 06:36:27;;;;;;;;;;;;;;;;;;5035761;28;19940;-26
2023/04/11 06:38:53;;;;;;;;;;;;;;;;;;5036326;28;19913;-24
2023/04/11 06:41:19;;;;;;;;;;;;;;;;;;5036075;28;19909;-30
2023/04/11 06:43:45;;;;;;;;;;;;;;;;;;5035927;28;19916;-31
2023/04/11 06:46:11;;;;;;;;;;;;;;;;;;5035683;28;19910;-31
2023/04/11 06:48:37;;;;;;;;;;;;;;;;;;5036513;28;19985;-28
2023/04/11 06:51:03;;;;;;;;;;;;;;;;;;5034847;28;20062;-33
2023/04/11 06:53:29;;;;;;;;;;;;;;;;;;5035860;28;20295;-29
2023/04/11 06:55:55;;;;;;;;;;;;;;;;;;5036108;28;20339;-30
2023/04/11 06:58:21;;;;;;;;;;;;;;;;;;5035999;28;19909;-32
2023/04/11 07:00:47;;;;;;;;;;;;;;;;;;5035426;28;20244;-30
2023/04/11 07:03:13;;;;;;;;;;;;;;;;;;5035156;28;19937;-29
2023/04/11 07:05:39;;;;;;;;;;;;;;;;;;5035561;28;20000;-28
2023/04/11 07:08:05;;;;;;;;;;;;;;;;;;5035575;28;19983;-31
2023/04/11 07:10:31;;;;;;;;;;;;;;;;;;5035348;28;19913;-31
2023/04/11 07:12:57;;;;;;;;;;;;;;;;;;5035312;28;20332;-28
2023/04/11 07:15:23;;;;;;;;;;;;;;;;;;5035014;28;19924;-27
2023/04/11 07:17:49;;;;;;;;;;;;;;;;;;5035198;28;19920;-29
2023/04/11 07:20:15;;;;;;;;;;;;;;;;;;5035137;28;19909;-30
2023/04/11 07:22:42;;;;;;;;;;;;;;;;;;5035392;28;19948;-24
2023/04/11 07:25:08;;;;;;;;;;;;;;;;;;5035191;28;19959;-28
2023/04/11 07:27:35;;;;;;;;;;;;;;;;;;5035367;28;20303;-23
2023/04/11 07:30:01;;;;;;;;;;;;;;;;;;5035292;28;20340;-28
2023/04/11 07:32:27;;;;;;;;;;;;;;;;;;5035327;28;19920;-26
2023/04/11 07:34:52;;;;;;;;;;;;;;;;;;5035325;28;19913;-28
2023/04/11 07:37:19;;;;;;;;;;;;;;;;;;5035591;28;19944;-26
2023/04/11 07:39:45;;;;;;;;;;;;;;;;;;5035212;28;20312;-24
2023/04/11 07:42:11;;;;;;;;;;;;;;;;;;5034582;28;19909;-25
2023/04/11 07:44:37;;;;;;;;;;;;;;;;;;5034504;28;19963;-26
2023/04/11 07:47:03;;;;;;;;;;;;;;;;;;5034468;28;19967;-27
2023/04/11 07:49:29;;;;;;;;;;;;;;;;;;5034876;28;19996;-26
2023/04/11 07:51:55;;;;;;;;;;;;;;;;;;5034564;28;20350;-30
2023/04/11 07:54:23;;;;;;;;;;;;;;;;;;5034535;28;19912;-26
2023/04/11 07:56:49;;;;;;;;;;;;;;;;;;5034098;28;19920;-25
2023/04/11 07:59:16;;;;;;;;;;;;;;;;;;5033389;28;20007;-27
2023/04/11 08:01:42;;;;;;;;;;;;;;;;;;5034495;28;19941;-29
2023/04/11 08:04:08;;;;;;;;;;;;;;;;;;5034220;28;20327;-32
2023/04/11 08:06:34;;;;;;;;;;;;;;;;;;5034528;28;19928;-27
2023/04/11 08:09:00;;;;;;;;;;;;;;;;;;5034712;28;19913;-28
2023/04/11 08:11:26;;;;;;;;;;;;;;;;;;5032951;28;19913;-32
2023/04/11 08:13:52;;;;;;;;;;;;;;;;;;5032908;28;19915;-29
2023/04/11 08:16:17;;;;;;;;;;;;;;;;;;5033636;28;19913;-23
2023/04/11 08:18:44;;;;;;;;;;;;;;;;;;5033957;28;19920;-30
2023/04/11 08:21:10;;;;;;;;;;;;;;;;;;5034565;28;19919;-25
2023/04/11 08:23:38;;;;;;;;;;;;;;;;;;5034096;28;19909;-31
2023/04/11 08:26:04;;;;;;;;;;;;;;;;;;5034056;28;19967;-27
2023/04/11 08:28:30;;;;;;;;;;;;;;;;;;5032747;28;19910;-27
2023/04/11 08:30:57;;;;;;;;;;;;;;;;;;5034085;28;19917;-25
2023/04/11 08:33:26;;;;;;;;;;;;;;;;;;5033705;28;19966;-31
2023/04/11 08:35:52;;;;;;;;;;;;;;;;;;5033873;28;19932;-27
2023/04/11 08:38:18;;;;;;;;;;;;;;;;;;5033551;28;19909;-29
2023/04/11 08:40:44;;;;;;;;;;;;;;;;;;5033925;28;20060;-24
2023/04/11 08:43:11;;;;;;;;;;;;;;;;;;5033613;28;19913;-28
2023/04/11 08:45:37;;;;;;;;;;;;;;;;;;5033120;28;19917;-29
2023/04/11 08:48:02;;;;;;;;;;;;;;;;;;5033241;28;19913;-30
2023/04/11 08:50:28;;;;;;;;;;;;;;;;;;5033087;28;19920;-24
2023/04/11 08:52:54;;;;;;;;;;;;;;;;;;5033020;28;19935;-27
2023/04/11 08:55:20;;;;;;;;;;;;;;;;;;5033110;28;19909;-29
2023/04/11 08:57:46;;;;;;;;;;;;;;;;;;5032859;28;19909;-28
2023/04/11 09:00:17;;;;;;;;;;;;;;;;;;5033116;28;19917;-27
2023/04/11 09:02:43;;;;;;;;;;;;;;;;;;5032979;28;19973;-31
2023/04/11 09:05:09;;;;;;;;;;;;;;;;;;5033215;28;19949;-26
2023/04/11 09:07:35;;;;;;;;;;;;;;;;;;5032961;28;19913;-32
2023/04/11 09:10:01;;;;;;;;;;;;;;;;;;5036027;28;20293;-33
2023/04/11 09:12:27;;;;;;;;;;;;;;;;;;5036969;28;19936;-30
2023/04/11 09:14:54;;;;;;;;;;;;;;;;;;5037047;28;19996;-25
2023/04/11 09:17:20;;;;;;;;;;;;;;;;;;5036824;28;19909;-28
2023/04/11 09:19:46;;;;;;;;;;;;;;;;;;5036743;28;19916;-29
2023/04/11 09:22:12;;;;;;;;;;;;;;;;;;5037103;28;19913;-30
2023/04/11 09:24:38;;;;;;;;;;;;;;;;;;5036131;28;19913;-30
2023/04/11 09:27:04;;;;;;;;;;;;;;;;;;5036413;28;19931;-29
2023/04/11 09:29:30;;;;;;;;;;;;;;;;;;5037359;28;20306;-28
2023/04/11 09:31:56;;;;;;;;;;;;;;;;;;5037059;28;19913;-29
2023/04/11 09:34:24;;;;;;;;;;;;;;;;;;5037092;28;19916;-26
2023/04/11 09:36:50;;;;;;;;;;;;;;;;;;5037073;28;19909;-28
2023/04/11 09:39:17;;;;;;;;;;;;;;;;;;5037264;28;19944;-28
2023/04/11 09:41:42;;;;;;;;;;;;;;;;;;5037615;28;19982;-26
2023/04/11 09:44:08;;;;;;;;;;;;;;;;;;5036134;28;19913;-29
2023/04/11 09:46:34;;;;;;;;;;;;;;;;;;5037049;28;19913;-30
2023/04/11 09:49:01;;;;;;;;;;;;;;;;;;5035927;28;19996;-27
2023/04/11 09:51:27;;;;;;;;;;;;;;;;;;5036039;28;19920;-26
2023/04/11 09:53:53;;;;;;;;;;;;;;;;;;5036899;28;19913;-29
2023/04/11 09:56:19;;;;;;;;;;;;;;;;;;5037072;28;20000;-26
2023/04/11 09:58:45;;;;;;;;;;;;;;;;;;5036928;28;20324;-24
2023/04/11 10:01:12;;;;;;;;;;;;;;;;;;5036918;28;19916;-30
2023/04/11 10:03:38;;;;;;;;;;;;;;;;;;5035310;28;19929;-30
2023/04/11 10:06:04;;;;;;;;;;;;;;;;;;5036981;28;19913;-26
2023/04/11 10:08:31;;;;;;;;;;;;;;;;;;5036990;28;19951;-26
2023/04/11 10:10:57;;;;;;;;;;;;;;;;;;5036552;28;19963;-26
2023/04/11 10:13:23;;;;;;;;;;;;;;;;;;5036567;28;20299;-24
2023/04/11 10:15:49;;;;;;;;;;;;;;;;;;5036706;28;20332;-28
2023/04/11 10:18:15;;;;;;;;;;;;;;;;;;5036776;28;19913;-25
2023/04/11 10:20:42;;;;;;;;;;;;;;;;;;5036019;28;19938;-24
2023/04/11 10:23:08;;;;;;;;;;;;;;;;;;5036720;28;20323;-30
2023/04/11 10:25:34;;;;;;;;;;;;;;;;;;5036547;28;19957;-27
2023/04/11 10:28:02;;;;;;;;;;;;;;;;;;5036374;28;19909;-28
2023/04/11 10:30:28;;;;;;;;;;;;;;;;;;5035270;28;19909;-28
2023/04/11 10:32:54;;;;;;;;;;;;;;;;;;5036127;28;19920;-27
2023/04/11 10:35:20;;;;;;;;;;;;;;;;;;5035974;28;19913;-30
2023/04/11 10:37:47;;;;;;;;;;;;;;;;;;5036176;28;19920;-27
2023/04/11 10:40:13;;;;;;;;;;;;;;;;;;5035899;28;19921;-30
2023/04/11 10:42:39;;;;;;;;;;;;;;;;;;5035799;28;19909;-31
2023/04/11 10:45:05;;;;;;;;;;;;;;;;;;5035712;28;20231;-30
2023/04/11 10:47:31;;;;;;;;;;;;;;;;;;5035734;28;19991;-26
2023/04/11 10:49:57;;;;;;;;;;;;;;;;;;5035703;28;20298;-24
2023/04/11 10:52:23;;;;;;;;;;;;;;;;;;5035711;28;19913;-31
2023/04/11 10:54:49;;;;;;;;;;;;;;;;;;5035690;28;19916;-26
2023/04/11 10:57:15;;;;;;;;;;;;;;;;;;5035300;28;19995;-29
2023/04/11 10:59:41;;;;;;;;;;;;;;;;;;5035214;28;19917;-32
2023/04/11 11:02:07;;;;;;;;;;;;;;;;;;5034717;28;20245;-29
2023/04/11 11:04:33;;;;;;;;;;;;;;;;;;5034885;28;20016;-26
2023/04/11 11:07:00;;;;;;;;;;;;;;;;;;5033846;28;19920;-24
2023/04/11 11:09:27;;;;;;;;;;;;;;;;;;5035139;28;19913;-30
2023/04/11 11:11:53;;;;;;;;;;;;;;;;;;5034752;28;19913;-31
2023/04/11 11:14:19;;;;;;;;;;;;;;;;;;5034971;28;20055;-30
2023/04/11 11:16:45;;;;;;;;;;;;;;;;;;5034769;28;19909;-28
2023/04/11 11:19:11;;;;;;;;;;;;;;;;;;5034741;28;19920;-24
2023/04/11 11:21:37;;;;;;;;;;;;;;;;;;5035260;28;19915;-27
2023/04/11 11:24:03;;;;;;;;;;;;;;;;;;5034985;28;19913;-24
2023/04/11 11:26:29;;;;;;;;;;;;;;;;;;5034993;28;20268;-26
2023/04/11 11:28:55;;;;;;;;;;;;;;;;;;5035347;28;19916;-28
2023/04/11 11:31:23;;;;;;;;;;;;;;;;;;5033635;28;20316;-30
2023/04/11 11:33:49;;;;;;;;;;;;;;;;;;5034791;28;19923;-28
2023/04/11 11:36:15;;;;;;;;;;;;;;;;;;5035035;28;19930;-26
2023/04/11 11:38:41;;;;;;;;;;;;;;;;;;5035118;28;19920;-23
2023/04/11 11:41:07;;;;;;;;;;;;;;;;;;5035175;28;19906;-28
2023/04/11 11:43:33;;;;;;;;;;;;;;;;;;5034402;28;19919;-26
2023/04/11 11:45:59;;;;;;;;;;;;;;;;;;5035039;28;20004;-28
2023/04/11 11:48:25;;;;;;;;;;;;;;;;;;5035374;28;19971;-27
2023/04/11 11:50:51;;;;;;;;;;;;;;;;;;5034600;28;19909;-32
2023/04/11 11:53:17;;;;;;;;;;;;;;;;;;5034601;28;19996;-26
2023/04/11 11:55:43;;;;;;;;;;;;;;;;;;5035157;28;20127;-26
2023/04/11 11:58:09;;;;;;;;;;;;;;;;;;5033512;28;19913;-26
2023/04/11 12:00:38;;;;;;;;;;;;;;;;;;5034889;28;19910;-25
2023/04/11 12:03:05;;;;;;;;;;;;;;;;;;5034224;28;19959;-24
2023/04/11 12:05:31;;;;;;;;;;;;;;;;;;5034360;28;19913;-23
2023/04/11 12:07:58;;;;;;;;;;;;;;;;;;5034352;28;19995;-28
2023/04/11 12:10:24;;;;;;;;;;;;;;;;;;5034523;28;19917;-28
2023/04/11 12:12:50;;;;;;;;;;;;;;;;;;5034438;28;20252;-33
2023/04/11 12:15:16;;;;;;;;;;;;;;;;;;5034576;28;19959;-28
2023/04/11 12:17:42;;;;;;;;;;;;;;;;;;5035639;28;19971;-25
2023/04/11 12:20:09;;;;;;;;;;;;;;;;;;5034582;28;19917;-29
2023/04/11 12:22:35;;;;;;;;;;;;;;;;;;5034151;28;20000;-27
2023/04/11 12:25:01;;;;;;;;;;;;;;;;;;5034279;28;20017;-29
2023/04/11 12:27:27;;;;;;;;;;;;;;;;;;5034601;28;20229;-27
2023/04/11 12:29:53;;;;;;;;;;;;;;;;;;5034324;28;20011;-24
2023/04/11 12:32:19;;;;;;;;;;;;;;;;;;5034207;28;19948;-25
2023/04/11 12:34:45;;;;;;;;;;;;;;;;;;5034193;28;19932;-25
2023/04/11 12:37:11;;;;;;;;;;;;;;;;;;5034351;28;19909;-28
2023/04/11 12:39:37;;;;;;;;;;;;;;;;;;5033061;28;19909;-24
2023/04/11 12:42:03;;;;;;;;;;;;;;;;;;5034162;28;20354;-28
2023/04/11 12:44:29;;;;;;;;;;;;;;;;;;5037610;28;19999;-29
2023/04/11 12:46:55;;;;;;;;;;;;;;;;;;5038012;28;20351;-26
2023/04/11 12:49:21;;;;;;;;;;;;;;;;;;5037944;28;19912;-32
2023/04/11 12:51:47;;;;;;;;;;;;;;;;;;5037398;28;20005;-29
2023/04/11 12:54:13;;;;;;;;;;;;;;;;;;5037936;28;20217;-20
2023/04/11 12:56:39;;;;;;;;;;;;;;;;;;5037646;28;19920;-28
2023/04/11 12:59:05;;;;;;;;;;;;;;;;;;5037503;28;19916;-26
2023/04/11 13:01:31;;;;;;;;;;;;;;;;;;5037743;28;20015;-29
2023/04/11 13:03:57;;;;;;;;;;;;;;;;;;5037562;28;20356;-28
2023/04/11 13:06:23;;;;;;;;;;;;;;;;;;5038181;28;20394;-25
2023/04/11 13:08:49;;;;;;;;;;;;;;;;;;5037944;28;20007;-24
2023/04/11 13:11:15;;;;;;;;;;;;;;;;;;5036924;28;19920;-28
2023/04/11 13:13:41;;;;;;;;;;;;;;;;;;5038000;28;20005;-27
2023/04/11 13:16:07;;;;;;;;;;;;;;;;;;5036876;28;19909;-24
2023/04/11 13:18:33;;;;;;;;;;;;;;;;;;5037936;28;20315;-25
2023/04/11 13:20:59;;;;;;;;;;;;;;;;;;5037957;28;19909;-30
2023/04/11 13:23:25;;;;;;;;;;;;;;;;;;5036675;28;19909;-26
2023/04/11 13:25:51;;;;;;;;;;;;;;;;;;5037464;28;19979;-26
2023/04/11 13:28:17;;;;;;;;;;;;;;;;;;5037310;28;19924;-31
2023/04/11 13:30:43;;;;;;;;;;;;;;;;;;5037253;28;19917;-26
2023/04/11 13:33:09;;;;;;;;;;;;;;;;;;5036283;28;20325;-31
2023/04/11 13:35:35;;;;;;;;;;;;;;;;;;5037720;28;19953;-30
2023/04/11 13:38:02;;;;;;;;;;;;;;;;;;5037792;28;19999;-27
2023/04/11 13:40:28;;;;;;;;;;;;;;;;;;5037430;28;19909;-26
2023/04/11 13:42:54;;;;;;;;;;;;;;;;;;5037480;28;20340;-28
2023/04/11 13:45:20;;;;;;;;;;;;;;;;;;5037109;28;19913;-28
2023/04/11 13:47:46;;;;;;;;;;;;;;;;;;5037268;28;19967;-31
2023/04/11 13:50:12;;;;;;;;;;;;;;;;;;5037451;28;20112;-28
2023/04/11 13:52:38;;;;;;;;;;;;;;;;;;5037261;28;19971;-29
2023/04/11 13:55:05;;;;;;;;;;;;;;;;;;5036233;28;19963;-29
2023/04/11 13:57:31;;;;;;;;;;;;;;;;;;5036737;28;19922;-26
2023/04/11 13:59:57;;;;;;;;;;;;;;;;;;5037170;28;19909;-27
2023/04/11 14:02:22;;;;;;;;;;;;;;;;;;5036720;28;19963;-25
2023/04/11 14:04:48;;;;;;;;;;;;;;;;;;5036889;28;19966;-25
2023/04/11 14:07:15;;;;;;;;;;;;;;;;;;5037020;28;19909;-30
2023/04/11 14:09:40;;;;;;;;;;;;;;;;;;5036399;28;19909;-24
2023/04/11 14:12:06;;;;;;;;;;;;;;;;;;5036456;28;20291;-32
2023/04/11 14:14:32;;;;;;;;;;;;;;;;;;5036762;28;19917;-33
2023/04/11 14:16:58;;;;;;;;;;;;;;;;;;5036281;28;20259;-25
2023/04/11 14:19:25;;;;;;;;;;;;;;;;;;5036501;28;19963;-25
2023/04/11 14:21:51;;;;;;;;;;;;;;;;;;5036279;28;20317;-30
2023/04/11 14:24:20;;;;;;;;;;;;;;;;;;5036626;28;19932;-25
2023/04/11 14:26:46;;;;;;;;;;;;;;;;;;5036197;28;19909;-27
2023/04/11 14:29:12;;;;;;;;;;;;;;;;;;5036288;28;19916;-29
2023/04/11 14:31:38;;;;;;;;;;;;;;;;;;5036181;28;19940;-28
2023/04/11 14:34:04;;;;;;;;;;;;;;;;;;5036027;28;20004;-28
2023/04/11 14:36:30;;;;;;;;;;;;;;;;;;5035958;28;19916;-29
2023/04/11 14:38:56;;;;;;;;;;;;;;;;;;5035984;28;19910;-26
2023/04/11 14:41:22;;;;;;;;;;;;;;;;;;5035945;28;20278;-27
2023/04/11 14:43:48;;;;;;;;;;;;;;;;;;5036108;28;20008;-27
2023/04/11 14:46:14;;;;;;;;;;;;;;;;;;5035949;28;19919;-30
2023/04/11 14:48:40;;;;;;;;;;;;;;;;;;5036133;28;19944;-29
2023/04/11 14:51:06;;;;;;;;;;;;;;;;;;5035776;28;20375;-30
2023/04/11 14:53:32;;;;;;;;;;;;;;;;;;5035808;28;20406;-26
2023/04/11 14:55:58;;;;;;;;;;;;;;;;;;5035707;28;20243;-27
2023/04/11 14:58:24;;;;;;;;;;;;;;;;;;5036210;28;19920;-28
2023/04/11 15:00:50;;;;;;;;;;;;;;;;;;5035779;28;19909;-30
2023/04/11 15:03:16;;;;;;;;;;;;;;;;;;5035504;28;20327;-29
2023/04/11 15:05:42;;;;;;;;;;;;;;;;;;5035846;28;20008;-27
2023/04/11 15:08:08;;;;;;;;;;;;;;;;;;5035659;28;19909;-29
2023/04/11 15:10:34;;;;;;;;;;;;;;;;;;5035773;28;20261;-29
2023/04/11 15:13:00;;;;;;;;;;;;;;;;;;5034955;28;19913;-31
2023/04/11 15:15:26;;;;;;;;;;;;;;;;;;5035160;28;20244;-29
2023/04/11 15:17:52;;;;;;;;;;;;;;;;;;5034815;28;19913;-24
2023/04/11 15:20:18;;;;;;;;;;;;;;;;;;5034912;28;20210;-27
2023/04/11 15:22:45;;;;;;;;;;;;;;;;;;5034866;28;19909;-31
2023/04/11 15:25:11;;;;;;;;;;;;;;;;;;5034946;28;20208;-28
2023/04/11 15:27:37;;;;;;;;;;;;;;;;;;5034532;28;19909;-29
2023/04/11 15:30:03;;;;;;;;;;;;;;;;;;5034772;28;19924;-26
2023/04/11 15:32:29;;;;;;;;;;;;;;;;;;5034513;28;19963;-22
2023/04/11 15:34:55;;;;;;;;;;;;;;;;;;5034524;28;19917;-28
2023/04/11 15:37:21;;;;;;;;;;;;;;;;;;5034628;28;19909;-32
2023/04/11 15:39:47;;;;;;;;;;;;;;;;;;5035006;28;20007;-31
2023/04/11 15:42:13;;;;;;;;;;;;;;;;;;5034002;28;20241;-25
2023/04/11 15:44:39;;;;;;;;;;;;;;;;;;5034933;28;19923;-33
2023/04/11 15:47:06;;;;;;;;;;;;;;;;;;5034923;28;19909;-29
2023/04/11 15:49:32;;;;;;;;;;;;;;;;;;5035028;28;19921;-26
2023/04/11 15:51:58;;;;;;;;;;;;;;;;;;5034767;28;19933;-24
2023/04/11 15:54:24;;;;;;;;;;;;;;;;;;5034933;28;20007;-26
2023/04/11 15:56:50;;;;;;;;;;;;;;;;;;5034896;28;19928;-31
2023/04/11 15:59:16;;;;;;;;;;;;;;;;;;5034812;28;19977;-27
2023/04/11 16:01:42;;;;;;;;;;;;;;;;;;5035468;28;19920;-26
2023/04/11 16:04:10;;;;;;;;;;;;;;;;;;5034351;28;19921;-33
2023/04/11 16:06:36;;;;;;;;;;;;;;;;;;5034634;28;19988;-29
2023/04/11 16:09:01;;;;;;;;;;;;;;;;;;5034821;28;20359;-27
2023/04/11 16:11:27;;;;;;;;;;;;;;;;;;5034500;28;19916;-28
2023/04/11 16:13:53;;;;;;;;;;;;;;;;;;5034459;28;20298;-31
2023/04/11 16:16:19;;;;;;;;;;;;;;;;;;5034406;28;19915;-28
2023/04/11 16:18:45;;;;;;;;;;;;;;;;;;5034317;28;19916;-27
2023/04/11 16:21:12;;;;;;;;;;;;;;;;;;5034341;28;19909;-27
2023/04/11 16:23:38;;;;;;;;;;;;;;;;;;5034230;28;19932;-28
2023/04/11 16:26:04;;;;;;;;;;;;;;;;;;5034249;28;19913;-29
2023/04/11 16:28:30;;;;;;;;;;;;;;;;;;5034370;28;19909;-29
2023/04/11 16:30:56;;;;;;;;;;;;;;;;;;5034482;28;19948;-26
2023/04/11 16:33:22;;;;;;;;;;;;;;;;;;5034240;28;20244;-28
2023/04/11 16:35:48;;;;;;;;;;;;;;;;;;5034217;28;19910;-30
2023/04/11 16:38:15;;;;;;;;;;;;;;;;;;5034474;28;20264;-28